createdAt,value
2022-09-28T00:01:18.307Z,2.45
2022-09-28T00:03:46.961Z,1.65
2022-09-28T00:06:16.844Z,2.30
2022-09-28T00:08:43.932Z,1.50
2022-09-28T00:11:15.542Z,3.25
2022-09-28T00:13:44.039Z,2.53
2022-09-28T00:16:17.264Z,1.65
2022-09-28T00:18:45.658Z,1.92
2022-09-28T00:21:15.586Z,1.77
2022-09-28T00:24:09.786Z,2.20
2022-09-28T00:26:37.226Z,1.48
2022-09-28T00:29:04.458Z,2.22
2022-09-28T00:31:33.716Z,1.50
2022-09-28T00:34:05.958Z,1.70
2022-09-28T00:39:05.831Z,1.85
2022-09-28T00:41:33.226Z,1.92
2022-09-28T00:44:23.087Z,2.75
2022-09-28T00:46:53.768Z,2.35
2022-09-28T00:49:30.271Z,2.50
2022-09-28T00:51:57.443Z,1.90
2022-09-28T00:54:24.947Z,2.40
2022-09-28T00:56:52.159Z,1.45
2022-09-28T00:59:19.324Z,2.85
2022-09-28T01:01:46.754Z,2.00
2022-09-28T01:04:14.131Z,2.13
2022-09-28T01:06:41.699Z,1.60
2022-09-28T01:09:10.593Z,1.48
2022-09-28T01:11:39.526Z,1.33
2022-09-28T01:14:11.887Z,1.73
2022-09-28T01:16:57.060Z,2.00
2022-09-28T01:20:24.243Z,1.52
2022-09-28T01:23:32.742Z,1.38
2022-09-28T01:26:18.021Z,1.92
2022-09-28T01:28:48.873Z,2.60
2022-09-28T01:31:17.957Z,1.77
2022-09-28T01:33:51.978Z,2.03
2022-09-28T01:36:34.806Z,1.40
2022-09-28T01:39:08.802Z,1.35
2022-09-28T01:41:40.276Z,1.10
2022-09-28T01:44:14.337Z,1.48
2022-09-28T01:46:45.216Z,1.40
2022-09-28T01:49:24.345Z,1.40
2022-09-28T01:52:00.110Z,1.40
2022-09-28T01:54:42.914Z,1.60
2022-09-28T01:57:22.055Z,1.17
2022-09-28T01:59:59.861Z,1.38
2022-09-28T02:02:34.098Z,1.33
2022-09-28T02:05:18.510Z,1.33
2022-09-28T02:07:57.439Z,1.25
2022-09-28T02:10:30.635Z,1.40
2022-09-28T02:13:04.930Z,1.77
2022-09-28T02:16:04.734Z,1.10
2022-09-28T02:18:32.175Z,1.00
2022-09-28T02:21:13.366Z,1.48
2022-09-28T02:23:47.000Z,1.27
2022-09-28T02:26:20.819Z,1.58
2022-09-28T02:28:49.724Z,1.80
2022-09-28T02:31:16.996Z,1.20
2022-09-28T02:33:45.899Z,1.20
2022-09-28T02:36:14.724Z,1.63
2022-09-28T02:38:43.133Z,1.40
2022-09-28T02:41:21.614Z,1.42
2022-09-28T02:44:13.460Z,1.23
2022-09-28T02:47:02.708Z,1.35
2022-09-28T02:49:39.973Z,1.02
2022-09-28T02:52:10.235Z,1.15
2022-09-28T02:54:56.502Z,1.20
2022-09-28T02:57:27.316Z,1.48
2022-09-28T03:00:20.763Z,1.00
2022-09-28T03:03:02.267Z,1.38
2022-09-28T03:05:50.084Z,1.50
2022-09-28T03:08:27.787Z,1.27
2022-09-28T03:11:16.049Z,1.70
2022-09-28T03:13:44.381Z,1.85
2022-09-28T03:16:15.174Z,1.42
2022-09-28T03:18:44.963Z,1.35
2022-09-28T03:21:13.681Z,1.23
2022-09-28T03:23:41.032Z,1.35
2022-09-28T03:26:10.795Z,1.42
2022-09-28T03:28:37.946Z,1.50
2022-09-28T03:31:06.276Z,1.85
2022-09-28T03:33:34.607Z,1.02
2022-09-28T03:36:04.380Z,1.73
2022-09-28T03:38:31.562Z,1.40
2022-09-28T03:41:00.683Z,1.40
2022-09-28T03:43:34.001Z,1.25
2022-09-28T03:46:03.176Z,1.58
2022-09-28T03:48:35.738Z,1.05
2022-09-28T03:51:07.151Z,1.30
2022-09-28T03:53:34.373Z,1.42
2022-09-28T03:56:07.513Z,1.40
2022-09-28T03:58:34.779Z,2.03
2022-09-28T04:01:16.525Z,1.38
2022-09-28T04:03:45.848Z,1.80
2022-09-28T04:06:13.916Z,2.05
2022-09-28T04:08:41.170Z,1.58
2022-09-28T04:11:09.120Z,1.50
2022-09-28T04:13:37.297Z,2.00
2022-09-28T04:16:06.628Z,1.67
2022-09-28T04:18:35.329Z,0.90
2022-09-28T04:21:34.766Z,1.10
2022-09-28T04:24:09.303Z,0.90
2022-09-28T04:26:36.906Z,1.10
2022-09-28T04:29:19.659Z,1.15
2022-09-28T04:31:51.823Z,1.20
2022-09-28T04:34:22.397Z,1.38
2022-09-28T04:36:50.538Z,1.38
2022-09-28T04:39:19.468Z,2.17
2022-09-28T04:41:54.653Z,2.25
2022-09-28T04:44:21.695Z,1.70
2022-09-28T04:46:51.675Z,1.98
2022-09-28T04:49:30.909Z,1.73
2022-09-28T04:52:04.988Z,1.90
2022-09-28T04:54:34.011Z,1.20
2022-09-28T04:57:03.379Z,1.00
2022-09-28T04:59:30.476Z,1.80
2022-09-28T05:01:57.879Z,1.20
2022-09-28T05:04:43.577Z,1.95
2022-09-28T05:07:35.898Z,2.00
2022-09-28T05:10:05.706Z,1.73
2022-09-28T05:12:33.429Z,1.88
2022-09-28T05:15:01.448Z,1.92
2022-09-28T05:17:28.871Z,2.20
2022-09-28T05:20:25.366Z,2.63
2022-09-28T05:22:52.569Z,2.42
2022-09-28T05:25:20.222Z,1.95
2022-09-28T05:28:06.971Z,1.52
2022-09-28T05:30:52.918Z,1.88
2022-09-28T05:33:38.338Z,1.70
2022-09-28T05:36:13.759Z,2.13
2022-09-28T05:38:42.632Z,1.55
2022-09-28T05:41:09.860Z,1.60
2022-09-28T05:43:38.404Z,1.58
2022-09-28T05:46:06.585Z,2.05
2022-09-28T05:48:36.180Z,1.23
2022-09-28T05:51:03.677Z,1.50
2022-09-28T05:53:30.886Z,1.75
2022-09-28T05:56:00.156Z,1.85
2022-09-28T05:58:28.395Z,2.22
2022-09-28T06:00:56.825Z,1.50
2022-09-28T06:03:24.627Z,1.67
2022-09-28T06:05:52.217Z,1.92
2022-09-28T06:08:19.468Z,2.28
2022-09-28T06:10:53.245Z,2.15
2022-09-28T06:13:20.750Z,2.20
2022-09-28T06:15:48.300Z,1.95
2022-09-28T06:18:15.664Z,1.80
2022-09-28T06:21:03.073Z,1.52
2022-09-28T06:23:34.152Z,1.53
2022-09-28T06:26:01.365Z,1.52
2022-09-28T06:28:28.629Z,1.70
2022-09-28T06:30:56.437Z,1.80
2022-09-28T06:33:26.417Z,2.00
2022-09-28T06:35:53.900Z,1.95
2022-09-28T06:38:21.412Z,1.55
2022-09-28T06:40:49.590Z,1.60
2022-09-28T06:43:16.883Z,1.67
2022-09-28T06:46:02.896Z,2.00
2022-09-28T06:48:31.861Z,1.55
2022-09-28T06:51:00.782Z,1.88
2022-09-28T06:53:33.203Z,1.63
2022-09-28T06:56:29.428Z,2.67
2022-09-28T06:58:59.742Z,1.63
2022-09-28T07:01:27.051Z,2.15
2022-09-28T07:04:09.207Z,2.42
2022-09-28T07:06:55.032Z,3.13
2022-09-28T07:09:48.104Z,2.60
2022-09-28T07:12:30.246Z,2.70
2022-09-28T07:15:03.373Z,2.53
2022-09-28T07:17:32.254Z,2.70
2022-09-28T07:20:14.863Z,1.92
2022-09-28T07:22:45.320Z,2.05
2022-09-28T07:25:21.985Z,2.65
2022-09-28T07:28:27.450Z,2.17
2022-09-28T07:31:10.554Z,2.90
2022-09-28T07:34:01.542Z,2.03
2022-09-28T07:36:35.131Z,2.72
2022-09-28T07:39:03.849Z,2.35
2022-09-28T07:41:34.083Z,2.10
2022-09-28T07:44:06.543Z,2.85
2022-09-28T07:46:36.953Z,2.85
2022-09-28T07:49:23.304Z,2.70
2022-09-28T07:51:58.493Z,3.28
2022-09-28T07:54:28.488Z,2.72
2022-09-28T07:57:24.316Z,3.47
2022-09-28T08:00:00.304Z,3.63
2022-09-28T08:02:45.232Z,3.05
2022-09-28T08:05:17.167Z,2.60
2022-09-28T08:07:45.204Z,2.55
2022-09-28T08:10:12.756Z,2.97
2022-09-28T08:13:06.428Z,3.33
2022-09-28T08:15:37.172Z,3.33
2022-09-28T08:18:14.254Z,3.80
2022-09-28T08:21:00.095Z,3.30
2022-09-28T08:23:27.326Z,3.90
2022-09-28T08:25:54.502Z,4.00
2022-09-28T08:28:24.270Z,2.70
2022-09-28T08:31:01.315Z,3.63
2022-09-28T08:33:31.818Z,4.43
2022-09-28T08:36:17.906Z,3.35
2022-09-28T08:39:07.711Z,4.00
2022-09-28T08:41:49.687Z,3.92
2022-09-28T08:44:50.631Z,3.63
2022-09-28T08:48:06.503Z,3.33
2022-09-28T08:50:59.098Z,3.75
2022-09-28T08:53:50.485Z,4.00
2022-09-28T08:56:53.688Z,5.00
2022-09-28T08:59:43.079Z,3.92
2022-09-28T09:02:22.494Z,4.28
2022-09-28T09:04:52.024Z,4.97
2022-09-28T09:07:48.623Z,4.78
2022-09-28T09:10:49.481Z,5.97
2022-09-28T09:13:38.657Z,4.35
2022-09-28T09:16:37.278Z,4.38
2022-09-28T09:19:30.042Z,4.30
2022-09-28T09:22:24.999Z,4.15
2022-09-28T09:24:58.962Z,3.67
2022-09-28T09:27:47.564Z,3.92
2022-09-28T09:30:22.116Z,3.38
2022-09-28T09:33:02.579Z,3.58
2022-09-28T09:35:55.752Z,3.55
2022-09-28T09:38:50.806Z,4.15
2022-09-28T09:41:50.491Z,3.88
2022-09-28T09:44:44.224Z,2.83
2022-09-28T09:47:59.546Z,3.78
2022-09-28T09:50:33.871Z,3.60
2022-09-28T09:53:07.449Z,3.45
2022-09-28T09:55:42.036Z,2.65
2022-09-28T09:58:48.003Z,2.33
2022-09-28T10:01:40.002Z,2.30
2022-09-28T10:04:24.764Z,3.42
2022-09-28T10:07:01.271Z,2.30
2022-09-28T10:09:34.771Z,1.98
2022-09-28T10:12:23.606Z,1.77
2022-09-28T10:14:51.151Z,1.50
2022-09-28T10:17:20.155Z,1.35
2022-09-28T10:20:13.338Z,1.90
2022-09-28T10:23:14.496Z,1.88
2022-09-28T10:25:43.878Z,2.53
2022-09-28T10:28:18.131Z,2.10
2022-09-28T10:30:45.626Z,1.67
2022-09-28T10:33:33.923Z,2.15
2022-09-28T10:36:04.955Z,1.92
2022-09-28T10:38:33.622Z,1.65
2022-09-28T10:41:12.064Z,1.80
2022-09-28T10:44:16.460Z,1.42
2022-09-28T10:47:04.176Z,1.45
2022-09-28T10:49:47.296Z,1.15
2022-09-28T10:52:30.965Z,0.90
2022-09-28T10:54:58.512Z,0.80
2022-09-28T10:57:37.216Z,0.90
2022-09-28T11:00:40.534Z,1.10
2022-09-28T11:03:28.919Z,0.93
2022-09-28T11:06:09.733Z,0.70
2022-09-28T11:08:42.629Z,0.60
2022-09-28T11:11:15.875Z,1.10
2022-09-28T11:13:52.041Z,1.17
2022-09-28T11:16:26.793Z,2.03
2022-09-28T11:18:56.285Z,0.80
2022-09-28T11:21:27.355Z,1.27
2022-09-28T11:24:27.620Z,0.73
2022-09-28T11:27:00.247Z,0.80
2022-09-28T11:29:35.495Z,0.75
2022-09-28T11:32:43.058Z,1.25
2022-09-28T11:35:55.100Z,0.77
2022-09-28T11:38:47.581Z,0.93
2022-09-28T11:41:35.264Z,0.85
2022-09-28T11:44:17.852Z,1.10
2022-09-28T11:46:51.542Z,0.60
2022-09-28T11:49:52.435Z,0.95
2022-09-28T11:52:36.625Z,0.95
2022-09-28T11:55:22.574Z,0.88
2022-09-28T11:57:57.018Z,0.75
2022-09-28T12:00:24.912Z,0.90
2022-09-28T12:03:00.698Z,0.80
2022-09-28T12:05:47.404Z,0.82
2022-09-28T12:08:21.422Z,0.80
2022-09-28T12:11:36.052Z,0.73
2022-09-28T12:14:27.348Z,1.35
2022-09-28T12:17:06.718Z,1.10
2022-09-28T12:19:44.181Z,1.02
2022-09-28T12:22:20.974Z,0.63
2022-09-28T12:24:52.751Z,0.90
2022-09-28T12:27:48.011Z,0.80
2022-09-28T12:30:26.681Z,0.82
2022-09-28T12:33:15.634Z,0.95
2022-09-28T12:36:00.741Z,0.70
2022-09-28T12:38:54.092Z,1.15
2022-09-28T12:41:59.780Z,0.85
2022-09-28T12:44:29.799Z,1.25
2022-09-28T12:47:27.505Z,0.93
2022-09-28T12:53:31.209Z,0.82
2022-09-28T12:56:06.273Z,1.15
2022-09-28T12:59:01.118Z,0.80
2022-09-28T13:01:35.790Z,1.08
2022-09-28T13:04:29.983Z,1.02
2022-09-28T13:07:24.009Z,1.00
2022-09-28T13:10:40.457Z,1.08
2022-09-28T13:13:28.784Z,0.65
2022-09-28T13:16:01.920Z,0.90
2022-09-28T13:18:38.780Z,0.80
2022-09-28T13:21:27.148Z,0.55
2022-09-28T13:24:14.421Z,1.10
2022-09-28T13:26:48.082Z,0.90
2022-09-28T13:29:18.242Z,1.05
2022-09-28T13:32:04.192Z,0.82
2022-09-28T13:34:34.204Z,0.70
2022-09-28T13:37:16.957Z,0.70
2022-09-28T13:39:52.296Z,1.00
2022-09-28T13:42:44.844Z,0.80
2022-09-28T13:45:50.053Z,0.68
2022-09-28T13:48:21.591Z,0.93
2022-09-28T13:51:05.005Z,1.07
2022-09-28T13:53:47.874Z,1.08
2022-09-28T13:56:39.844Z,0.90
2022-09-28T13:59:27.741Z,0.82
2022-09-28T14:02:13.510Z,0.90
2022-09-28T14:05:05.663Z,0.63
2022-09-28T14:07:35.498Z,0.80
2022-09-28T14:10:21.063Z,0.90
2022-09-28T14:12:53.057Z,0.90
2022-09-28T14:15:29.352Z,0.77
2022-09-28T14:18:16.239Z,1.10
2022-09-28T14:20:55.751Z,0.90
2022-09-28T14:24:08.032Z,0.50
2022-09-28T14:26:41.927Z,0.77
2022-09-28T14:29:31.321Z,1.02
2022-09-28T14:32:20.314Z,0.60
2022-09-28T14:34:55.532Z,0.70
2022-09-28T14:37:47.175Z,0.68
2022-09-28T14:40:48.814Z,0.80
2022-09-28T14:43:37.379Z,0.90
2022-09-28T14:46:14.582Z,0.88
2022-09-28T14:48:44.504Z,0.95
2022-09-28T14:51:26.571Z,0.60
2022-09-28T14:53:56.466Z,0.93
2022-09-28T14:56:26.998Z,0.75
2022-09-28T14:58:58.260Z,0.80
2022-09-28T15:01:26.016Z,0.98
2022-09-28T15:03:57.075Z,0.70
2022-09-28T15:06:25.473Z,0.90
2022-09-28T15:08:53.004Z,0.93
2022-09-28T15:11:25.654Z,0.88
2022-09-28T15:14:06.602Z,0.88
2022-09-28T15:16:33.948Z,0.93
2022-09-28T15:19:25.662Z,0.88
2022-09-28T15:21:53.096Z,0.67
2022-09-28T15:24:26.208Z,0.70
2022-09-28T15:26:53.620Z,0.70
2022-09-28T15:29:22.975Z,0.73
2022-09-28T15:31:54.196Z,0.60
2022-09-28T15:34:50.822Z,0.93
2022-09-28T15:37:22.105Z,0.93
2022-09-28T15:39:54.720Z,0.80
2022-09-28T15:42:22.870Z,1.17
2022-09-28T15:45:10.881Z,0.85
2022-09-28T15:47:40.195Z,1.20
2022-09-28T15:50:22.707Z,0.70
2022-09-28T15:55:32.437Z,0.82
2022-09-28T15:58:07.595Z,1.15
2022-09-28T16:00:35.536Z,1.45
2022-09-28T16:03:07.493Z,0.77
2022-09-28T16:05:51.185Z,0.98
2022-09-28T16:08:27.528Z,1.20
2022-09-28T16:11:15.691Z,0.95
2022-09-28T16:14:07.349Z,0.68
2022-09-28T16:16:42.204Z,1.05
2022-09-28T16:19:28.369Z,1.10
2022-09-28T16:21:57.756Z,1.55
2022-09-28T16:24:30.437Z,0.85
2022-09-28T16:26:59.329Z,0.90
2022-09-28T16:29:39.837Z,1.00
2022-09-28T16:32:25.796Z,0.77
2022-09-28T16:35:11.056Z,0.90
2022-09-28T16:37:42.682Z,0.85
2022-09-28T16:40:11.148Z,0.73
2022-09-28T16:42:42.659Z,0.70
2022-09-28T16:45:19.865Z,0.50
2022-09-28T16:47:47.678Z,0.68
2022-09-28T16:50:15.881Z,0.90
2022-09-28T16:53:01.964Z,0.68
2022-09-28T16:55:40.046Z,0.60
2022-09-28T16:58:08.218Z,0.60
2022-09-28T17:00:35.455Z,0.70
2022-09-28T17:03:05.349Z,0.70
2022-09-28T17:05:32.553Z,0.65
2022-09-28T17:08:01.752Z,0.60
2022-09-28T17:11:02.586Z,0.60
2022-09-28T17:13:36.058Z,0.47
2022-09-28T17:16:11.699Z,0.63
2022-09-28T17:18:39.855Z,0.70
2022-09-28T17:21:12.281Z,0.47
2022-09-28T17:26:06.966Z,0.50
2022-09-28T17:28:36.938Z,0.90
2022-09-28T17:31:04.843Z,0.95
2022-09-28T17:33:31.960Z,0.80
2022-09-28T17:36:04.991Z,0.70
2022-09-28T17:38:32.483Z,0.50
2022-09-28T17:40:59.558Z,0.80
2022-09-28T17:43:26.723Z,0.95
2022-09-28T17:45:53.945Z,0.82
2022-09-28T17:48:24.422Z,0.85
2022-09-28T17:50:51.610Z,0.95
2022-09-28T17:53:19.439Z,0.98
2022-09-28T17:55:46.540Z,1.05
2022-09-28T17:58:22.042Z,1.20
2022-09-28T18:00:51.536Z,1.45
2022-09-28T18:03:21.093Z,1.58
2022-09-28T18:06:03.678Z,1.58
2022-09-28T18:08:31.325Z,1.20
2022-09-28T18:10:58.713Z,1.45
2022-09-28T18:13:25.969Z,2.30
2022-09-28T18:15:54.419Z,2.58
2022-09-28T18:18:22.971Z,2.53
2022-09-28T18:20:50.299Z,1.73
2022-09-28T18:23:17.847Z,1.98
2022-09-28T18:25:46.350Z,3.25
2022-09-28T18:28:14.340Z,3.88
2022-09-28T18:30:44.307Z,2.85
2022-09-28T18:33:14.705Z,6.05
2022-09-28T18:35:51.631Z,7.63
2022-09-28T18:38:19.322Z,8.25
2022-09-28T18:40:48.402Z,6.65
2022-09-28T18:43:16.696Z,6.60
2022-09-28T18:45:44.120Z,4.75
2022-09-28T18:48:11.342Z,4.75
2022-09-28T18:50:38.558Z,2.72
2022-09-28T18:53:11.986Z,3.40
2022-09-28T18:55:43.449Z,4.10
2022-09-28T18:58:12.559Z,4.55
2022-09-28T19:00:40.879Z,5.88
2022-09-28T19:03:11.128Z,5.15
2022-09-28T19:05:43.041Z,5.57
2022-09-28T19:08:10.408Z,6.75
2022-09-28T19:10:37.634Z,4.95
2022-09-28T19:13:05.034Z,6.22
2022-09-28T19:15:33.148Z,5.57
2022-09-28T19:18:00.471Z,6.60
2022-09-28T19:20:28.149Z,4.32
2022-09-28T19:22:55.488Z,4.30
2022-09-28T19:25:22.676Z,4.00
2022-09-28T19:27:49.749Z,4.93
2022-09-28T19:30:17.103Z,3.75
2022-09-28T19:32:44.481Z,3.90
2022-09-28T19:35:11.833Z,3.33
2022-09-28T19:37:39.385Z,3.03
2022-09-28T19:40:07.131Z,2.92
2022-09-28T19:42:36.259Z,3.88
2022-09-28T19:45:03.593Z,3.45
2022-09-28T19:47:31.720Z,3.47
2022-09-28T19:49:59.133Z,4.00
2022-09-28T19:52:26.277Z,4.22
2022-09-28T19:54:57.096Z,4.00
2022-09-28T19:57:27.654Z,3.83
2022-09-28T20:00:01.718Z,4.18
2022-09-28T20:02:33.954Z,5.05
2022-09-28T20:05:01.186Z,4.15
2022-09-28T20:07:32.805Z,4.18
2022-09-28T20:10:00.286Z,3.72
2022-09-28T20:12:27.935Z,3.83
2022-09-28T20:14:55.512Z,3.65
2022-09-28T20:17:22.780Z,3.67
2022-09-28T20:19:51.746Z,3.70
2022-09-28T20:22:19.566Z,3.25
2022-09-28T20:24:46.696Z,4.97
2022-09-28T20:27:13.967Z,3.75
2022-09-28T20:29:43.052Z,4.32
2022-09-28T20:32:11.618Z,3.45
2022-09-28T20:34:38.823Z,3.70
2022-09-28T20:37:06.042Z,3.60
2022-09-28T20:39:34.788Z,3.35
2022-09-28T20:42:02.868Z,4.00
2022-09-28T20:44:30.202Z,3.78
2022-09-28T20:46:57.598Z,3.65
2022-09-28T20:49:24.892Z,3.30
2022-09-28T20:51:52.139Z,3.22
2022-09-28T20:54:22.368Z,3.20
2022-09-28T20:56:49.897Z,3.20
2022-09-28T20:59:18.688Z,2.97
2022-09-28T21:01:46.078Z,3.67
2022-09-28T21:04:13.321Z,3.55
2022-09-28T21:06:42.257Z,3.67
2022-09-28T21:09:11.183Z,3.40
2022-09-28T21:11:38.696Z,3.88
2022-09-28T21:14:08.708Z,3.30
2022-09-28T21:16:36.261Z,2.92
2022-09-28T21:19:04.008Z,2.75
2022-09-28T21:21:31.590Z,3.15
2022-09-28T21:23:59.049Z,2.70
2022-09-28T21:26:28.552Z,3.35
2022-09-28T21:28:58.028Z,2.50
2022-09-28T21:31:29.171Z,3.38
2022-09-28T21:33:57.778Z,4.00
2022-09-28T21:36:26.068Z,3.83
2022-09-28T21:38:55.201Z,4.10
2022-09-28T21:41:22.905Z,4.43
2022-09-28T21:43:50.076Z,4.20
2022-09-28T21:46:17.686Z,4.07
2022-09-28T21:48:45.033Z,3.55
2022-09-28T21:51:15.786Z,4.07
2022-09-28T21:53:44.147Z,4.05
2022-09-28T21:56:12.883Z,3.72
2022-09-28T21:58:40.261Z,3.55
2022-09-28T22:01:19.592Z,3.47
2022-09-28T22:03:51.656Z,3.25
2022-09-28T22:06:21.111Z,3.85
2022-09-28T22:08:49.350Z,3.50
2022-09-28T22:11:22.373Z,4.05
2022-09-28T22:13:55.046Z,4.00
2022-09-28T22:16:24.608Z,3.42
2022-09-28T22:18:52.201Z,3.55
2022-09-28T22:21:21.010Z,3.15
2022-09-28T22:23:48.771Z,2.90
2022-09-28T22:26:24.846Z,2.83
2022-09-28T22:28:57.678Z,3.00
2022-09-28T22:31:43.431Z,3.45
2022-09-28T22:34:10.631Z,3.30
2022-09-28T22:36:37.799Z,3.30
2022-09-28T22:39:05.045Z,3.50
2022-09-28T22:41:32.222Z,3.22
2022-09-28T22:43:59.406Z,2.97
2022-09-28T22:46:28.952Z,2.83
2022-09-28T22:48:58.391Z,3.92
2022-09-28T22:51:28.090Z,2.80
2022-09-28T22:53:56.661Z,2.70
2022-09-28T22:56:24.485Z,3.08
2022-09-28T22:58:51.894Z,3.75
2022-09-28T23:01:25.401Z,3.08
2022-09-28T23:03:53.696Z,3.30
2022-09-28T23:06:38.512Z,2.88
2022-09-28T23:09:05.637Z,2.72
2022-09-28T23:11:32.807Z,2.35
2022-09-28T23:14:00.115Z,3.08
2022-09-28T23:16:27.970Z,2.83
2022-09-28T23:18:55.942Z,2.72
2022-09-28T23:21:25.176Z,3.03
2022-09-28T23:23:55.271Z,2.40
2022-09-28T23:26:27.754Z,2.65
2022-09-28T23:28:55.975Z,2.97
2022-09-28T23:31:31.959Z,3.72
2022-09-28T23:34:04.973Z,3.50
2022-09-28T23:36:33.010Z,2.83
2022-09-28T23:39:00.278Z,3.67
2022-09-28T23:41:27.922Z,2.95
2022-09-28T23:43:55.045Z,3.08
2022-09-28T23:46:22.408Z,2.95
2022-09-28T23:48:49.964Z,3.40
2022-09-28T23:51:17.534Z,2.65
2022-09-28T23:53:45.389Z,2.88
2022-09-28T23:56:12.937Z,2.92
2022-09-28T23:58:40.077Z,3.30
